Time;durP1;ratioP1;P1;durP2;ratioP2;P2;SDS_P1;SDS_P2;PMS_P1;PMS_P2;Temp;Humidity;BMP_temperature;BMP_pressure;BME280_temperature;BME280_humidity;BME280_pressure;Samples;Min_cycle;Max_cycle;Signal;HPM_P1;HPM_P2
2021/08/21 00:00:57;;;;;;;23.97;13.93;;;15.10;99.90;;;;;;4148715;28;20219;-76
2021/08/21 00:02:58;;;;;;;22.37;14.13;;;15.10;99.90;;;;;;4149992;28;20208;-76
2021/08/21 00:05:02;;;;;;;21.30;13.80;;;15.10;99.90;;;;;;4146163;28;20224;-76
2021/08/21 00:07:04;;;;;;;21.73;13.40;;;15.10;99.90;;;;;;4143426;28;20233;-76
2021/08/21 00:09:06;;;;;;;22.20;13.60;;;15.00;99.90;;;;;;4149752;28;20215;-76
2021/08/21 00:11:08;;;;;;;21.77;13.10;;;15.00;99.90;;;;;;4149473;28;20573;-76
2021/08/21 00:13:09;;;;;;;18.73;12.80;;;15.00;99.90;;;;;;4148163;28;20208;-76
2021/08/21 00:15:14;;;;;;;19.03;12.53;;;15.00;99.90;;;;;;4147090;28;20612;-76
2021/08/21 00:17:15;;;;;;;19.27;12.27;;;15.00;99.90;;;;;;4149015;28;20212;-76
2021/08/21 00:19:17;;;;;;;19.50;12.50;;;14.90;99.90;;;;;;4148511;28;20500;-76
2021/08/21 00:21:20;;;;;;;18.47;12.20;;;14.90;99.90;;;;;;4148535;28;20203;-76
2021/08/21 00:23:22;;;;;;;18.27;11.90;;;14.90;99.90;;;;;;4146840;28;20262;-76
2021/08/21 00:25:23;;;;;;;19.60;12.97;;;14.90;99.90;;;;;;4134069;28;20212;-76
2021/08/21 00:27:27;;;;;;;18.30;12.67;;;14.90;99.90;;;;;;4149553;28;20231;-76
2021/08/21 00:29:28;;;;;;;28.63;13.30;;;14.80;99.90;;;;;;4146165;28;20648;-76
2021/08/21 00:31:31;;;;;;;19.00;12.00;;;14.80;99.90;;;;;;4142016;28;20682;-76
2021/08/21 00:33:32;;;;;;;16.70;11.70;;;14.80;99.90;;;;;;4148969;28;20208;-76
2021/08/21 00:35:34;;;;;;;20.43;11.53;;;14.80;99.90;;;;;;4148479;28;20209;-76
2021/08/21 00:37:37;;;;;;;16.83;11.73;;;14.80;99.90;;;;;;4145838;28;20216;-76
2021/08/21 00:39:39;;;;;;;14.77;10.73;;;14.80;99.90;;;;;;4134304;28;20209;-76
2021/08/21 00:41:41;;;;;;;18.80;12.07;;;14.80;99.90;;;;;;4143960;28;20208;-76
2021/08/21 00:43:43;;;;;;;16.60;11.40;;;14.80;99.90;;;;;;4149141;28;20243;-76
2021/08/21 00:45:44;;;;;;;17.10;12.27;;;14.70;99.90;;;;;;4148158;28;20216;-76
2021/08/21 00:47:46;;;;;;;17.10;11.87;;;14.70;99.90;;;;;;4141606;28;20208;-76
2021/08/21 00:49:50;;;;;;;17.10;11.67;;;14.70;99.90;;;;;;4148561;28;20209;-76
2021/08/21 00:51:52;;;;;;;17.57;11.53;;;14.70;99.90;;;;;;4149087;28;20275;-76
2021/08/21 00:53:55;;;;;;;17.07;11.80;;;14.60;99.90;;;;;;4148962;28;20490;-76
2021/08/21 00:55:56;;;;;;;16.77;11.93;;;14.60;99.90;;;;;;4148898;28;20254;-76
2021/08/21 00:57:58;;;;;;;21.03;12.43;;;14.60;99.90;;;;;;4143848;28;20221;-76
2021/08/21 01:00:00;;;;;;;18.27;11.70;;;14.60;99.90;;;;;;4147955;28;20211;-76
2021/08/21 01:02:03;;;;;;;17.43;11.53;;;14.50;99.90;;;;;;4149629;28;20214;-76
2021/08/21 01:04:05;;;;;;;19.13;12.30;;;14.50;99.90;;;;;;4147717;28;20231;-76
2021/08/21 01:06:07;;;;;;;20.60;13.00;;;14.50;99.90;;;;;;4141213;28;20254;-76
2021/08/21 01:08:09;;;;;;;20.67;13.00;;;14.50;99.90;;;;;;4148129;28;20278;-76
2021/08/21 01:10:14;;;;;;;19.83;12.37;;;14.40;99.90;;;;;;4148496;28;20212;-76
2021/08/21 01:12:17;;;;;;;19.70;12.43;;;14.40;99.90;;;;;;4149408;28;20612;-76
2021/08/21 01:14:19;;;;;;;21.50;12.63;;;14.40;99.90;;;;;;4131989;28;20236;-76
2021/08/21 01:16:22;;;;;;;18.73;11.97;;;14.40;99.90;;;;;;4147895;28;20667;-76
2021/08/21 01:18:24;;;;;;;18.30;12.07;;;14.30;99.90;;;;;;4146643;28;20213;-76
2021/08/21 01:20:28;;;;;;;18.17;11.60;;;14.30;99.90;;;;;;4148378;28;20227;-76
2021/08/21 01:22:30;;;;;;;19.97;12.47;;;14.30;99.90;;;;;;4146792;28;20798;-76
2021/08/21 01:24:32;;;;;;;17.37;11.03;;;14.30;99.90;;;;;;4149604;28;20227;-76
2021/08/21 01:26:35;;;;;;;18.53;11.87;;;14.20;99.90;;;;;;4147878;28;20302;-76
2021/08/21 01:28:38;;;;;;;16.10;11.20;;;14.20;99.90;;;;;;4147318;28;20833;-76
2021/08/21 01:30:42;;;;;;;17.67;12.17;;;14.20;99.90;;;;;;4143077;28;20212;-76
2021/08/21 01:32:44;;;;;;;17.47;12.30;;;14.20;99.90;;;;;;4148238;28;20254;-76
2021/08/21 01:34:46;;;;;;;17.33;11.30;;;14.20;99.90;;;;;;4148512;28;20741;-76
2021/08/21 01:36:50;;;;;;;17.73;11.90;;;14.20;99.90;;;;;;4145334;28;20231;-76
2021/08/21 01:38:57;;;;;;;17.33;11.73;;;14.10;99.90;;;;;;4141041;28;20249;-76
2021/08/21 01:40:58;;;;;;;18.03;11.53;;;14.10;99.90;;;;;;4148306;28;20215;-76
2021/08/21 01:43:00;;;;;;;17.73;11.97;;;14.10;99.90;;;;;;4147669;28;20223;-76
2021/08/21 01:45:08;;;;;;;17.77;12.07;;;14.10;99.90;;;;;;4147816;28;20269;-76
2021/08/21 01:47:10;;;;;;;19.60;12.63;;;14.10;99.90;;;;;;4141941;28;20242;-76
2021/08/21 01:49:12;;;;;;;19.87;12.57;;;14.10;99.90;;;;;;4145621;28;20248;-76
2021/08/21 01:51:14;;;;;;;18.63;12.53;;;14.00;99.90;;;;;;4148319;28;20239;-76
2021/08/21 01:53:17;;;;;;;18.50;12.33;;;14.00;99.90;;;;;;4147570;28;20220;-76
2021/08/21 01:55:18;;;;;;;16.93;11.37;;;14.00;99.90;;;;;;4146702;28;20212;-76
2021/08/21 01:57:20;;;;;;;18.77;12.60;;;14.00;99.90;;;;;;4147890;28;20212;-76
2021/08/21 01:59:24;;;;;;;17.53;11.80;;;14.00;99.90;;;;;;4147633;28;20199;-76
2021/08/21 02:01:27;;;;;;;18.47;12.13;;;14.00;99.90;;;;;;4147682;28;20235;-76
2021/08/21 02:03:30;;;;;;;19.47;12.27;;;13.90;99.90;;;;;;4147225;28;20216;-76
2021/08/21 02:05:33;;;;;;;16.27;11.40;;;13.90;99.90;;;;;;4147310;28;20294;-76
2021/08/21 02:07:35;;;;;;;18.20;11.40;;;13.90;99.90;;;;;;4147245;28;20277;-76
2021/08/21 02:09:37;;;;;;;18.17;11.30;;;13.90;99.90;;;;;;4146795;28;20219;-76
2021/08/21 02:11:39;;;;;;;16.90;10.77;;;13.90;99.90;;;;;;4145988;28;20217;-76
2021/08/21 02:13:41;;;;;;;14.67;10.87;;;13.90;99.90;;;;;;4146546;28;20253;-76
2021/08/21 02:15:42;;;;;;;17.17;10.83;;;13.90;99.90;;;;;;4147344;28;20264;-76
2021/08/21 02:17:45;;;;;;;15.73;10.70;;;13.90;99.90;;;;;;4146728;28;20207;-76
2021/08/21 02:19:47;;;;;;;17.13;10.97;;;13.90;99.90;;;;;;4144237;28;20668;-76
2021/08/21 02:21:51;;;;;;;14.90;10.60;;;13.80;99.90;;;;;;4140843;28;20208;-76
2021/08/21 02:23:55;;;;;;;15.00;10.33;;;13.80;99.90;;;;;;4147302;28;20231;-76
2021/08/21 02:25:57;;;;;;;16.07;10.27;;;13.80;99.90;;;;;;4139186;28;20690;-76
2021/08/21 02:28:06;;;;;;;14.50;10.57;;;13.80;99.90;;;;;;4146256;28;20874;-76
2021/08/21 02:30:10;;;;;;;15.83;10.27;;;13.80;99.90;;;;;;4139557;28;20208;-76
2021/08/21 02:32:11;;;;;;;17.57;10.03;;;13.80;99.90;;;;;;4147908;28;20588;-76
2021/08/21 02:34:14;;;;;;;14.70;10.40;;;13.80;99.90;;;;;;4147072;28;20227;-76
2021/08/21 02:36:16;;;;;;;16.60;10.03;;;13.70;99.90;;;;;;4146259;28;20237;-76
2021/08/21 02:38:18;;;;;;;14.80;9.23;;;13.70;99.90;;;;;;4143943;28;20219;-76
2021/08/21 02:40:20;;;;;;;15.83;9.10;;;13.70;99.90;;;;;;4145499;28;20326;-76
2021/08/21 02:42:22;;;;;;;14.27;10.10;;;13.70;99.90;;;;;;4143798;28;20218;-76
2021/08/21 02:44:23;;;;;;;16.43;9.83;;;13.70;99.90;;;;;;4147841;28;20242;-76
2021/08/21 02:46:25;;;;;;;16.63;9.43;;;13.60;99.90;;;;;;4146185;28;20214;-76
2021/08/21 02:48:27;;;;;;;13.90;8.77;;;13.70;99.90;;;;;;4142445;28;20218;-76
2021/08/21 02:50:31;;;;;;;12.87;9.20;;;13.70;99.90;;;;;;4146256;28;20254;-76
2021/08/21 02:52:32;;;;;;;14.20;9.43;;;13.70;99.90;;;;;;4147484;28;20632;-76
2021/08/21 02:54:34;;;;;;;14.53;9.43;;;13.60;99.90;;;;;;4147490;28;20600;-76
2021/08/21 02:56:36;;;;;;;14.30;9.50;;;13.60;99.90;;;;;;4146873;28;20597;-76
2021/08/21 02:58:37;;;;;;;13.77;9.37;;;13.60;99.90;;;;;;4133003;28;20219;-76
2021/08/21 03:00:41;;;;;;;14.43;9.53;;;13.60;99.90;;;;;;4130375;28;20219;-76
2021/08/21 03:02:43;;;;;;;16.70;10.40;;;13.50;99.90;;;;;;4137366;28;20250;-76
2021/08/21 03:04:44;;;;;;;17.17;10.40;;;13.50;99.90;;;;;;4146665;28;20246;-76
2021/08/21 03:06:47;;;;;;;14.77;9.90;;;13.50;99.90;;;;;;4142019;28;20224;-76
2021/08/21 03:08:49;;;;;;;14.00;9.80;;;13.50;99.90;;;;;;4146442;28;20293;-76
2021/08/21 03:10:51;;;;;;;16.97;11.40;;;13.50;99.90;;;;;;4146837;28;20576;-76
2021/08/21 03:12:52;;;;;;;16.63;11.23;;;13.50;99.90;;;;;;4146706;28;20218;-76
2021/08/21 03:14:54;;;;;;;15.77;10.43;;;13.50;99.90;;;;;;4146524;28;20243;-76
2021/08/21 03:16:56;;;;;;;17.07;10.87;;;13.40;99.90;;;;;;4143609;28;20216;-75
2021/08/21 03:18:57;;;;;;;19.47;10.87;;;13.40;99.90;;;;;;4145867;28;20211;-76
2021/08/21 03:20:59;;;;;;;17.90;11.50;;;13.40;99.90;;;;;;4146556;28;20642;-76
2021/08/21 03:23:02;;;;;;;17.57;11.27;;;13.40;99.90;;;;;;4146507;28;20225;-76
2021/08/21 03:25:05;;;;;;;17.17;10.80;;;13.40;99.90;;;;;;4144639;28;20242;-76
2021/08/21 03:27:06;;;;;;;16.17;10.73;;;13.40;99.90;;;;;;4146793;28;20231;-76
2021/08/21 03:29:09;;;;;;;19.53;12.10;;;13.40;99.90;;;;;;4146108;28;20261;-76
2021/08/21 03:31:11;;;;;;;18.73;10.80;;;13.30;99.90;;;;;;4141775;28;20666;-76
2021/08/21 03:33:12;;;;;;;20.10;11.87;;;13.30;99.90;;;;;;4146404;28;20213;-76
2021/08/21 03:35:14;;;;;;;18.77;12.13;;;13.30;99.90;;;;;;4147086;28;20223;-76
2021/08/21 03:37:16;;;;;;;18.93;11.47;;;13.30;99.90;;;;;;4146090;28;20496;-76
2021/08/21 03:39:19;;;;;;;19.13;11.63;;;13.30;99.90;;;;;;4146670;28;20651;-76
2021/08/21 03:41:21;;;;;;;18.10;12.00;;;13.20;99.90;;;;;;4146235;28;20219;-76
2021/08/21 03:43:23;;;;;;;17.53;11.20;;;13.20;99.90;;;;;;4146401;28;20265;-76
2021/08/21 03:45:25;;;;;;;21.23;11.10;;;13.20;99.90;;;;;;4165926;23;20253;-75
2021/08/21 03:47:26;;;;;;;15.63;10.93;;;13.20;99.90;;;;;;4144037;28;20234;-74
2021/08/21 03:49:28;;;;;;;22.73;11.33;;;13.10;99.90;;;;;;4143990;28;20214;-75
2021/08/21 03:51:30;;;;;;;17.43;10.87;;;13.10;99.90;;;;;;4146368;28;20215;-76
2021/08/21 03:53:31;;;;;;;18.60;10.83;;;13.10;99.90;;;;;;4145791;28;20586;-75
2021/08/21 03:55:34;;;;;;;20.00;11.13;;;13.20;99.90;;;;;;4149593;28;20234;-75
2021/08/21 03:57:36;;;;;;;16.27;11.17;;;13.10;99.90;;;;;;4144573;28;20215;-76
2021/08/21 03:59:38;;;;;;;18.30;10.77;;;13.10;99.90;;;;;;4151130;28;20211;-76
2021/08/21 04:01:39;;;;;;;17.97;11.13;;;13.10;99.90;;;;;;4147990;28;20202;-75
2021/08/21 04:03:41;;;;;;;17.10;10.67;;;13.10;99.90;;;;;;4145195;28;20210;-75
2021/08/21 04:05:43;;;;;;;16.97;10.40;;;13.10;99.90;;;;;;4140724;28;20225;-75
2021/08/21 04:07:44;;;;;;;18.10;10.73;;;13.10;99.90;;;;;;4152804;28;20232;-76
2021/08/21 04:09:46;;;;;;;15.97;10.53;;;13.10;99.90;;;;;;4146398;28;20219;-76
2021/08/21 04:11:49;;;;;;;17.07;11.00;;;13.10;99.90;;;;;;4145985;28;20245;-76
2021/08/21 04:13:51;;;;;;;15.33;9.87;;;13.10;99.90;;;;;;4144580;28;20560;-75
2021/08/21 04:15:52;;;;;;;17.53;10.50;;;13.10;99.90;;;;;;4142517;28;20666;-76
2021/08/21 04:17:54;;;;;;;17.60;10.27;;;13.00;99.90;;;;;;4145935;28;20206;-75
2021/08/21 04:19:56;;;;;;;17.30;10.00;;;13.00;99.90;;;;;;4152547;28;20220;-75
2021/08/21 04:21:57;;;;;;;16.07;9.80;;;13.00;99.90;;;;;;4155003;28;20226;-75
2021/08/21 04:23:59;;;;;;;17.67;9.87;;;13.00;99.90;;;;;;4132682;28;20210;-76
2021/08/21 04:26:01;;;;;;;16.13;10.60;;;13.00;99.90;;;;;;4146423;28;20252;-76
2021/08/21 04:28:04;;;;;;;15.53;10.17;;;13.00;99.90;;;;;;4146687;28;20237;-75
2021/08/21 04:30:07;;;;;;;17.23;10.80;;;13.00;99.90;;;;;;4155429;28;20261;-75
2021/08/21 04:32:09;;;;;;;14.83;9.80;;;13.00;99.90;;;;;;4161271;28;20222;-76
2021/08/21 04:34:10;;;;;;;15.10;10.13;;;13.00;99.90;;;;;;4147950;28;20231;-76
2021/08/21 04:36:12;;;;;;;13.77;9.43;;;13.00;99.90;;;;;;4152261;28;20218;-75
2021/08/21 04:38:14;;;;;;;13.40;9.23;;;13.00;99.90;;;;;;4146044;28;20216;-75
2021/08/21 04:40:16;;;;;;;14.20;9.00;;;13.00;99.90;;;;;;4139773;28;20215;-75
2021/08/21 04:42:18;;;;;;;15.53;10.13;;;13.00;99.90;;;;;;4150045;28;20230;-75
2021/08/21 04:44:21;;;;;;;14.83;9.67;;;13.00;99.90;;;;;;4150374;28;20291;-76
2021/08/21 04:46:23;;;;;;;13.37;9.10;;;13.10;99.90;;;;;;4152473;28;20708;-75
2021/08/21 04:48:24;;;;;;;15.67;10.17;;;13.10;99.90;;;;;;4147474;28;20275;-76
2021/08/21 04:50:27;;;;;;;14.63;9.60;;;13.10;99.90;;;;;;4155152;28;20225;-75
2021/08/21 04:52:28;;;;;;;14.13;9.33;;;13.10;99.90;;;;;;4151431;28;20216;-75
2021/08/21 04:54:30;;;;;;;14.53;9.77;;;13.10;99.90;;;;;;4149421;28;20242;-75
2021/08/21 04:56:32;;;;;;;14.23;9.40;;;13.10;99.90;;;;;;4152202;28;20215;-76
2021/08/21 04:58:33;;;;;;;14.40;9.67;;;13.10;99.90;;;;;;4144834;28;21540;-75
2021/08/21 05:00:37;;;;;;;15.63;9.97;;;13.10;99.90;;;;;;4155026;28;20241;-75
2021/08/21 05:02:38;;;;;;;16.73;9.37;;;13.10;99.90;;;;;;4154796;28;20329;-75
2021/08/21 05:04:40;;;;;;;15.37;9.67;;;13.10;99.90;;;;;;4163452;28;20287;-76
2021/08/21 05:06:42;;;;;;;14.23;9.67;;;13.10;99.90;;;;;;4139434;28;20288;-75
2021/08/21 05:08:43;;;;;;;16.47;9.87;;;13.20;99.90;;;;;;4147567;28;20848;-76
2021/08/21 05:10:45;;;;;;;16.37;9.63;;;13.20;99.90;;;;;;4157595;28;20306;-75
2021/08/21 05:12:47;;;;;;;13.97;9.73;;;13.20;99.90;;;;;;4158553;28;20273;-75
2021/08/21 05:14:48;;;;;;;12.63;8.67;;;13.20;99.90;;;;;;4144177;28;20234;-76
2021/08/21 05:16:52;;;;;;;13.87;8.77;;;13.20;99.90;;;;;;4153217;28;20215;-76
2021/08/21 05:18:57;;;;;;;14.10;9.43;;;13.20;99.90;;;;;;4142984;28;20575;-76
2021/08/21 05:21:06;;;;;;;15.60;9.60;;;13.20;99.90;;;;;;4156815;28;20298;-76
2021/08/21 05:23:08;;;;;;;15.40;9.37;;;13.20;99.90;;;;;;4154728;28;20211;-75
2021/08/21 05:25:10;;;;;;;14.43;9.50;;;13.30;99.90;;;;;;4147914;28;20328;-76
2021/08/21 05:27:12;;;;;;;14.23;9.07;;;13.20;99.90;;;;;;4142278;28;20211;-75
2021/08/21 05:29:14;;;;;;;16.37;9.80;;;13.30;99.90;;;;;;4140015;28;20260;-75
2021/08/21 05:31:15;;;;;;;14.30;9.13;;;13.30;99.90;;;;;;4130641;28;20728;-76
2021/08/21 05:33:19;;;;;;;16.50;9.33;;;13.30;99.90;;;;;;4145501;28;20207;-77
2021/08/21 05:35:21;;;;;;;14.23;8.63;;;13.40;99.90;;;;;;4149043;28;20745;-76
2021/08/21 05:37:23;;;;;;;15.10;8.70;;;13.30;99.90;;;;;;4147698;28;20234;-77
2021/08/21 05:39:25;;;;;;;14.27;9.37;;;13.40;99.90;;;;;;4146009;28;20709;-76
2021/08/21 05:41:26;;;;;;;15.80;9.43;;;13.40;99.90;;;;;;4149088;28;20231;-77
2021/08/21 05:43:28;;;;;;;13.70;9.57;;;13.40;99.90;;;;;;4146383;28;20272;-76
2021/08/21 05:45:30;;;;;;;13.00;8.77;;;13.40;99.90;;;;;;4147542;28;20724;-75
2021/08/21 05:47:32;;;;;;;15.13;9.63;;;13.40;99.90;;;;;;4144938;28;20629;-74
2021/08/21 05:49:35;;;;;;;14.97;9.23;;;13.50;99.90;;;;;;4147012;28;20603;-75
2021/08/21 05:51:37;;;;;;;15.07;9.07;;;13.40;99.90;;;;;;4147115;28;20682;-72
2021/08/21 05:53:39;;;;;;;13.53;9.13;;;13.50;99.90;;;;;;4145069;28;20215;-73
2021/08/21 05:55:40;;;;;;;16.80;9.83;;;13.50;99.90;;;;;;4151061;28;20210;-73
2021/08/21 05:57:42;;;;;;;14.10;9.53;;;13.60;99.90;;;;;;4146967;28;20550;-75
2021/08/21 05:59:44;;;;;;;15.97;9.60;;;13.60;99.90;;;;;;4147646;28;20212;-72
2021/08/21 06:01:46;;;;;;;12.70;9.00;;;13.60;99.90;;;;;;4148876;28;20212;-72
2021/08/21 06:03:47;;;;;;;14.63;9.57;;;13.60;99.90;;;;;;4146734;28;20285;-72
2021/08/21 06:05:50;;;;;;;14.83;9.60;;;13.60;99.90;;;;;;4148133;28;20258;-72
2021/08/21 06:07:52;;;;;;;14.20;8.80;;;13.70;99.90;;;;;;4146348;28;20217;-72
2021/08/21 06:09:54;;;;;;;14.23;8.97;;;13.70;99.90;;;;;;4145640;28;20274;-73
2021/08/21 06:11:55;;;;;;;15.17;9.17;;;13.70;99.90;;;;;;4146746;28;20204;-73
2021/08/21 06:13:57;;;;;;;14.27;9.20;;;13.80;99.90;;;;;;4152417;28;20716;-73
2021/08/21 06:15:59;;;;;;;16.23;9.87;;;13.80;99.90;;;;;;4148441;28;20656;-72
2021/08/21 06:18:01;;;;;;;14.80;9.63;;;13.90;99.90;;;;;;4146698;28;20212;-75
2021/08/21 06:20:04;;;;;;;13.47;8.73;;;13.90;99.90;;;;;;4144536;28;20281;-72
2021/08/21 06:22:07;;;;;;;16.07;10.00;;;13.90;99.90;;;;;;4145125;28;20243;-73
2021/08/21 06:24:09;;;;;;;12.03;8.67;;;13.90;99.90;;;;;;4144508;28;20224;-73
2021/08/21 06:26:11;;;;;;;12.83;8.80;;;14.00;99.90;;;;;;4147125;28;20262;-75
2021/08/21 06:28:15;;;;;;;15.03;9.17;;;14.00;99.90;;;;;;4145101;28;20717;-76
2021/08/21 06:30:17;;;;;;;13.80;9.13;;;14.10;99.90;;;;;;4146396;28;20211;-76
2021/08/21 06:32:19;;;;;;;14.67;9.27;;;14.10;99.90;;;;;;4145163;28;20214;-76
2021/08/21 06:34:21;;;;;;;17.73;9.00;;;14.10;99.90;;;;;;4146671;28;20697;-76
2021/08/21 06:36:22;;;;;;;15.27;9.37;;;14.20;99.90;;;;;;4147088;28;20220;-77
2021/08/21 06:38:26;;;;;;;13.93;8.87;;;14.20;99.90;;;;;;4147499;28;20704;-76
2021/08/21 06:40:27;;;;;;;12.83;8.50;;;14.30;99.90;;;;;;4146932;28;20741;-77
2021/08/21 06:42:29;;;;;;;11.77;8.87;;;14.30;99.90;;;;;;4147587;28;20216;-76
2021/08/21 06:44:31;;;;;;;13.20;8.70;;;14.40;99.90;;;;;;4147519;28;20241;-77
2021/08/21 06:46:33;;;;;;;13.80;8.20;;;14.40;99.90;;;;;;4146863;28;20255;-78
2021/08/21 06:48:35;;;;;;;13.57;9.20;;;14.50;99.90;;;;;;4144693;28;20232;-77
2021/08/21 06:50:37;;;;;;;14.63;9.17;;;14.50;99.90;;;;;;4146929;28;20219;-77
2021/08/21 06:52:39;;;;;;;12.07;8.33;;;14.60;99.90;;;;;;4146119;28;20231;-77
2021/08/21 06:54:42;;;;;;;11.93;7.93;;;14.60;99.90;;;;;;4150119;28;20231;-76
2021/08/21 06:56:43;;;;;;;13.80;8.67;;;14.70;99.90;;;;;;4146947;28;20655;-77
2021/08/21 06:58:45;;;;;;;13.23;8.70;;;14.70;99.90;;;;;;4146453;28;20209;-78
2021/08/21 07:00:47;;;;;;;13.07;8.70;;;14.90;99.90;;;;;;4147158;28;20208;-77
2021/08/21 07:02:48;;;;;;;12.83;8.43;;;14.90;99.90;;;;;;4146746;28;20204;-77
2021/08/21 07:04:50;;;;;;;12.97;7.97;;;15.00;99.90;;;;;;4144778;28;20635;-75
2021/08/21 07:06:52;;;;;;;12.30;8.20;;;15.00;99.90;;;;;;4146694;28;20212;-75
2021/08/21 07:08:54;;;;;;;12.93;8.37;;;15.10;99.90;;;;;;4146212;28;20240;-77
2021/08/21 07:10:57;;;;;;;11.47;8.07;;;15.10;99.90;;;;;;4146964;28;20221;-77
2021/08/21 07:12:58;;;;;;;11.50;7.60;;;15.20;99.90;;;;;;4143474;28;20220;-76
2021/08/21 07:15:00;;;;;;;11.60;7.97;;;15.20;99.90;;;;;;4146979;28;20228;-75
2021/08/21 07:17:02;;;;;;;11.17;7.93;;;15.20;99.90;;;;;;4147026;28;20270;-77
2021/08/21 07:19:05;;;;;;;11.93;8.00;;;15.30;99.90;;;;;;4145984;28;20216;-77
2021/08/21 07:21:09;;;;;;;11.30;7.97;;;15.40;99.90;;;;;;4147466;28;20211;-77
2021/08/21 07:23:11;;;;;;;12.20;7.67;;;15.40;99.90;;;;;;4146928;28;20223;-76
2021/08/21 07:25:17;;;;;;;12.37;7.97;;;15.50;99.90;;;;;;4148879;28;20237;-76
2021/08/21 07:27:29;;;;;;;10.80;7.87;;;15.60;99.90;;;;;;4146359;28;20295;-73
2021/08/21 07:29:34;;;;;;;11.80;7.80;;;15.60;99.90;;;;;;4145719;28;20234;-73
2021/08/21 07:31:36;;;;;;;16.20;8.90;;;15.70;99.90;;;;;;4146910;28;20593;-72
2021/08/21 07:33:37;;;;;;;12.60;8.23;;;15.80;99.90;;;;;;4146787;28;20211;-74
2021/08/21 07:35:39;;;;;;;12.03;8.00;;;15.90;99.90;;;;;;4145049;28;20227;-73
2021/08/21 07:37:41;;;;;;;12.80;8.13;;;15.90;99.90;;;;;;4145028;28;20284;-76
2021/08/21 07:39:42;;;;;;;11.53;7.50;;;16.00;99.90;;;;;;4143908;28;20587;-76
2021/08/21 07:41:44;;;;;;;11.57;7.97;;;16.10;99.90;;;;;;4146761;28;20215;-76
2021/08/21 07:43:47;;;;;;;11.23;7.70;;;16.20;99.90;;;;;;4146466;28;20261;-76
2021/08/21 07:45:49;;;;;;;10.53;7.70;;;16.20;99.90;;;;;;4146761;28;20276;-76
2021/08/21 07:47:51;;;;;;;11.60;8.00;;;16.30;99.90;;;;;;4145751;28;20214;-75
2021/08/21 07:49:53;;;;;;;10.53;7.47;;;16.30;99.90;;;;;;4145395;28;20259;-75
2021/08/21 07:51:55;;;;;;;9.43;7.17;;;16.40;99.90;;;;;;4146192;28;20258;-76
2021/08/21 07:53:56;;;;;;;9.67;7.27;;;16.50;99.90;;;;;;4146441;28;20657;-76
2021/08/21 07:55:58;;;;;;;11.03;7.57;;;16.60;99.90;;;;;;4143776;28;20733;-75
2021/08/21 07:58:00;;;;;;;11.10;7.20;;;16.70;99.90;;;;;;4144659;28;20226;-76
2021/08/21 08:00:04;;;;;;;13.03;7.43;;;16.70;99.90;;;;;;4146268;28;20211;-75
2021/08/21 08:02:06;;;;;;;9.87;7.17;;;16.80;99.90;;;;;;4146300;28;20277;-74
2021/08/21 08:04:08;;;;;;;10.43;7.10;;;16.90;99.90;;;;;;4145337;28;20235;-75
2021/08/21 08:06:09;;;;;;;10.13;7.43;;;17.00;99.90;;;;;;4145009;28;20214;-76
2021/08/21 08:08:11;;;;;;;10.30;7.17;;;17.00;99.90;;;;;;4145800;28;20725;-75
2021/08/21 08:10:13;;;;;;;11.63;7.30;;;17.10;99.90;;;;;;4146604;28;20235;-76
2021/08/21 08:12:14;;;;;;;10.03;6.87;;;17.20;99.90;;;;;;4146254;28;20237;-76
2021/08/21 08:14:16;;;;;;;11.27;7.33;;;17.30;99.90;;;;;;4144847;28;20237;-76
2021/08/21 08:16:19;;;;;;;10.73;7.40;;;17.40;99.90;;;;;;4149056;28;20207;-76
2021/08/21 08:18:21;;;;;;;11.13;7.53;;;17.50;99.90;;;;;;4149129;28;20220;-76
2021/08/21 08:20:23;;;;;;;10.60;7.23;;;17.60;99.90;;;;;;4148921;28;20210;-75
2021/08/21 08:22:25;;;;;;;10.80;6.80;;;17.60;99.90;;;;;;4149084;28;20236;-75
2021/08/21 08:24:27;;;;;;;9.57;6.80;;;17.70;99.90;;;;;;4146746;28;20240;-75
2021/08/21 08:26:28;;;;;;;12.10;7.20;;;17.80;99.90;;;;;;4148602;28;20262;-76
2021/08/21 08:28:30;;;;;;;10.03;6.90;;;17.90;99.90;;;;;;4149372;28;20204;-76
2021/08/21 08:30:32;;;;;;;10.60;7.40;;;18.00;99.90;;;;;;4146324;28;20255;-76
2021/08/21 08:32:35;;;;;;;9.53;6.47;;;18.00;99.90;;;;;;4149428;28;20212;-76
2021/08/21 08:34:37;;;;;;;10.10;6.83;;;18.10;99.90;;;;;;4149288;28;20245;-75
2021/08/21 08:36:38;;;;;;;9.57;6.37;;;18.20;99.90;;;;;;4149113;28;20665;-74
2021/08/21 08:38:40;;;;;;;8.80;6.40;;;18.30;99.90;;;;;;4149107;28;20298;-76
2021/08/21 08:40:42;;;;;;;11.27;6.37;;;18.30;99.90;;;;;;4147590;28;20213;-75
2021/08/21 08:42:45;;;;;;;8.67;6.50;;;18.40;99.90;;;;;;4148742;28;20249;-76
2021/08/21 08:44:47;;;;;;;9.20;6.57;;;18.50;99.90;;;;;;4148933;28;20784;-76
2021/08/21 08:46:49;;;;;;;7.57;6.00;;;18.60;99.90;;;;;;4144794;28;20723;-74
2021/08/21 08:48:53;;;;;;;9.20;6.93;;;18.70;99.90;;;;;;4148674;28;20221;-76
2021/08/21 08:50:55;;;;;;;9.80;6.37;;;18.80;99.90;;;;;;4149229;28;20211;-76
2021/08/21 08:52:57;;;;;;;7.77;5.73;;;18.80;99.90;;;;;;4149143;28;20215;-76
2021/08/21 08:54:59;;;;;;;7.73;6.33;;;18.90;99.90;;;;;;4146610;28;20230;-76
2021/08/21 08:57:00;;;;;;;8.63;6.30;;;19.00;99.90;;;;;;4148702;28;20277;-75
2021/08/21 08:59:04;;;;;;;8.47;6.57;;;19.00;99.90;;;;;;4146179;28;20212;-76
2021/08/21 09:01:06;;;;;;;8.90;6.60;;;19.10;99.90;;;;;;4148818;28;20206;-75
2021/08/21 09:03:20;;;;;;;9.40;6.57;;;19.20;99.90;;;;;;4148777;28;20214;-76
2021/08/21 09:05:25;;;;;;;10.83;6.77;;;19.20;99.90;;;;;;4145610;28;20243;-75
2021/08/21 09:07:44;;;;;;;10.67;6.73;;;19.30;99.90;;;;;;4146503;28;20664;-76
2021/08/21 09:09:46;;;;;;;8.90;6.63;;;19.40;99.90;;;;;;4147218;28;20233;-75
2021/08/21 09:11:53;;;;;;;7.40;5.73;;;19.50;99.90;;;;;;4147546;28;20302;-76
2021/08/21 09:14:18;;;;;;;9.27;6.33;;;19.50;99.90;;;;;;4148829;28;20210;-76
2021/08/21 09:16:27;;;;;;;8.27;6.17;;;19.60;99.90;;;;;;4148455;28;20214;-76
2021/08/21 09:18:30;;;;;;;7.60;6.03;;;19.70;99.90;;;;;;4146828;28;20215;-77
2021/08/21 09:20:34;;;;;;;9.17;6.10;;;19.70;99.90;;;;;;4146729;28;20249;-75
2021/08/21 09:22:36;;;;;;;8.97;6.23;;;19.80;99.90;;;;;;4147218;28;20214;-76
2021/08/21 09:24:39;;;;;;;9.70;5.80;;;19.80;99.90;;;;;;4148016;28;20451;-76
2021/08/21 09:26:40;;;;;;;8.60;5.83;;;19.90;99.90;;;;;;4147211;28;20227;-76
2021/08/21 09:28:44;;;;;;;7.00;5.60;;;20.00;99.90;;;;;;4148599;28;20214;-75
2021/08/21 09:30:46;;;;;;;7.47;5.57;;;20.10;99.90;;;;;;4145995;28;20310;-77
2021/08/21 09:32:48;;;;;;;7.27;5.70;;;20.20;99.90;;;;;;4148421;28;20234;-75
2021/08/21 09:34:50;;;;;;;8.20;5.57;;;20.20;99.90;;;;;;4148175;28;20239;-74
2021/08/21 09:36:53;;;;;;;8.73;5.77;;;20.30;99.90;;;;;;4147824;28;20266;-74
2021/08/21 09:38:55;;;;;;;8.60;6.00;;;20.40;99.90;;;;;;4145908;28;20206;-73
2021/08/21 09:41:05;;;;;;;7.37;5.80;;;20.50;99.90;;;;;;4147665;28;20219;-73
2021/08/21 09:43:09;;;;;;;9.60;5.90;;;20.60;99.90;;;;;;4148211;28;20697;-74
2021/08/21 09:45:12;;;;;;;8.53;5.33;;;20.70;99.90;;;;;;4178685;23;20326;-78
2021/08/21 09:47:19;;;;;;;8.60;5.60;;;20.80;99.90;;;;;;4132232;28;20672;-75
2021/08/21 09:49:22;;;;;;;7.97;5.47;;;20.90;99.90;;;;;;4129199;28;20257;-76
2021/08/21 09:51:39;;;;;;;6.80;5.30;;;20.90;99.90;;;;;;4131343;28;20262;-75
2021/08/21 09:53:42;;;;;;;7.70;5.50;;;21.00;99.90;;;;;;4131747;28;20282;-75
2021/08/21 09:55:43;;;;;;;7.30;5.07;;;21.10;99.90;;;;;;4130613;28;20246;-75
2021/08/21 09:57:58;;;;;;;7.23;5.03;;;21.20;99.90;;;;;;4129070;28;20208;-76
2021/08/21 10:00:01;;;;;;;7.80;5.13;;;21.30;99.30;;;;;;4132668;28;20579;-76
2021/08/21 10:02:05;;;;;;;7.17;4.83;;;21.40;99.30;;;;;;4129004;28;20213;-75
2021/08/21 10:04:07;;;;;;;5.77;4.90;;;21.50;98.80;;;;;;4130742;28;20208;-76
2021/08/21 10:06:10;;;;;;;6.43;5.00;;;21.50;98.50;;;;;;4130726;28;20219;-76
2021/08/21 10:08:14;;;;;;;6.97;5.00;;;21.60;98.20;;;;;;4133842;28;20679;-78
2021/08/21 10:10:21;;;;;;;6.90;5.00;;;21.60;98.10;;;;;;4130802;28;20235;-78
2021/08/21 10:12:23;;;;;;;5.53;4.73;;;21.70;98.00;;;;;;4128181;28;20216;-78
2021/08/21 10:14:26;;;;;;;5.47;4.47;;;21.80;97.60;;;;;;4132224;28;20260;-78
2021/08/21 10:16:30;;;;;;;6.57;4.57;;;21.90;97.20;;;;;;4131215;28;20209;-76
2021/08/21 10:18:32;;;;;;;5.77;4.50;;;22.00;96.30;;;;;;4131269;28;20446;-75
2021/08/21 10:20:34;;;;;;;6.93;4.50;;;22.10;96.00;;;;;;4128376;28;20209;-78
2021/08/21 10:22:36;;;;;;;6.07;4.50;;;22.20;95.90;;;;;;4131436;28;20217;-78
2021/08/21 10:24:40;;;;;;;6.47;4.77;;;22.40;94.90;;;;;;4131313;28;20234;-76
2021/08/21 10:26:43;;;;;;;8.13;4.20;;;22.40;94.20;;;;;;4129734;28;20209;-75
2021/08/21 10:28:45;;;;;;;5.20;3.70;;;22.60;91.90;;;;;;4130210;28;20577;-75